Moa, Cuba
Current Conditions -  °F | °C
As of 7:56 AM on Sunday 25 Jan 2015 (Local Time) from MUGM Reporting Station
Haze Haze  
Wind Chill: 71°   Ceiling: Unl
Heat Index: 71°   Visibility: 6mi
Dew Point: 69°   Wind: 9mph
Humidity: 93%   Direction: 350°N
Pressure: 30.02"   Gusts: NA
Location:  20.66°N, 74.92°W
Report Text: MUGM 251156Z 35008KT 9000 BR FEW028 22/21 A3002 RMK SLP165 T02170206 10233 20211 53018
Loading
Personal Weather Stations






























Interactive Weather Map New forecast layout! Learn more

10-Day Weather Forecast

Advertisements
Track Severe Weather on mobile